sensor_id;sensor_type;location;lat;lon;timestamp;P1;durP1;ratioP1;P2;durP2;ratioP2
16516;SDS011;8371;52.272;9.746;2024-02-21T00:00:08;6.43;;;5.37;;
16516;SDS011;8371;52.272;9.746;2024-02-21T00:02:36;4.90;;;4.50;;
16516;SDS011;8371;52.272;9.746;2024-02-21T00:05:02;4.73;;;4.47;;
16516;SDS011;8371;52.272;9.746;2024-02-21T00:07:28;5.60;;;5.07;;
16516;SDS011;8371;52.272;9.746;2024-02-21T00:09:54;4.47;;;4.17;;
16516;SDS011;8371;52.272;9.746;2024-02-21T00:12:20;5.00;;;4.60;;
16516;SDS011;8371;52.272;9.746;2024-02-21T00:14:45;6.83;;;6.13;;
16516;SDS011;8371;52.272;9.746;2024-02-21T00:17:11;8.37;;;5.57;;
16516;SDS011;8371;52.272;9.746;2024-02-21T00:19:37;5.70;;;5.30;;
16516;SDS011;8371;52.272;9.746;2024-02-21T00:22:03;5.00;;;4.70;;
16516;SDS011;8371;52.272;9.746;2024-02-21T00:24:29;5.87;;;5.30;;
16516;SDS011;8371;52.272;9.746;2024-02-21T00:26:55;5.93;;;5.53;;
16516;SDS011;8371;52.272;9.746;2024-02-21T00:29:21;7.97;;;5.07;;
16516;SDS011;8371;52.272;9.746;2024-02-21T00:31:47;7.13;;;4.90;;
16516;SDS011;8371;52.272;9.746;2024-02-21T00:34:14;7.10;;;5.60;;
16516;SDS011;8371;52.272;9.746;2024-02-21T00:36:40;7.30;;;5.47;;
16516;SDS011;8371;52.272;9.746;2024-02-21T00:39:05;5.57;;;5.23;;
16516;SDS011;8371;52.272;9.746;2024-02-21T00:41:31;6.63;;;6.10;;
16516;SDS011;8371;52.272;9.746;2024-02-21T00:43:58;5.20;;;4.83;;
16516;SDS011;8371;52.272;9.746;2024-02-21T00:46:24;8.10;;;5.77;;
16516;SDS011;8371;52.272;9.746;2024-02-21T00:48:49;6.27;;;5.87;;
16516;SDS011;8371;52.272;9.746;2024-02-21T00:51:16;6.80;;;5.30;;
16516;SDS011;8371;52.272;9.746;2024-02-21T00:53:42;6.23;;;5.83;;
16516;SDS011;8371;52.272;9.746;2024-02-21T00:56:08;6.37;;;5.70;;
16516;SDS011;8371;52.272;9.746;2024-02-21T00:58:34;6.87;;;6.47;;
16516;SDS011;8371;52.272;9.746;2024-02-21T01:01:02;7.07;;;6.40;;
16516;SDS011;8371;52.272;9.746;2024-02-21T01:03:28;7.90;;;5.97;;
16516;SDS011;8371;52.272;9.746;2024-02-21T01:05:54;6.10;;;5.70;;
16516;SDS011;8371;52.272;9.746;2024-02-21T01:08:19;8.13;;;7.30;;
16516;SDS011;8371;52.272;9.746;2024-02-21T01:10:45;8.67;;;6.20;;
16516;SDS011;8371;52.272;9.746;2024-02-21T01:13:11;6.57;;;5.97;;
16516;SDS011;8371;52.272;9.746;2024-02-21T01:15:36;7.17;;;6.47;;
16516;SDS011;8371;52.272;9.746;2024-02-21T01:18:02;6.03;;;5.70;;
16516;SDS011;8371;52.272;9.746;2024-02-21T01:20:28;6.70;;;6.20;;
16516;SDS011;8371;52.272;9.746;2024-02-21T01:22:54;8.27;;;6.80;;
16516;SDS011;8371;52.272;9.746;2024-02-21T01:25:19;6.47;;;5.87;;
16516;SDS011;8371;52.272;9.746;2024-02-21T01:27:45;6.57;;;6.17;;
16516;SDS011;8371;52.272;9.746;2024-02-21T01:30:11;7.60;;;6.90;;
16516;SDS011;8371;52.272;9.746;2024-02-21T01:32:37;7.37;;;6.83;;
16516;SDS011;8371;52.272;9.746;2024-02-21T01:35:03;9.33;;;7.37;;
16516;SDS011;8371;52.272;9.746;2024-02-21T01:37:29;6.63;;;6.10;;
16516;SDS011;8371;52.272;9.746;2024-02-21T01:39:54;7.17;;;6.63;;
16516;SDS011;8371;52.272;9.746;2024-02-21T01:42:20;7.37;;;6.57;;
16516;SDS011;8371;52.272;9.746;2024-02-21T01:44:46;6.00;;;5.50;;
16516;SDS011;8371;52.272;9.746;2024-02-21T01:47:11;6.63;;;6.17;;
16516;SDS011;8371;52.272;9.746;2024-02-21T01:49:42;7.20;;;6.60;;
16516;SDS011;8371;52.272;9.746;2024-02-21T01:52:08;6.87;;;6.17;;
16516;SDS011;8371;52.272;9.746;2024-02-21T01:54:37;6.40;;;5.93;;
16516;SDS011;8371;52.272;9.746;2024-02-21T01:57:03;5.93;;;5.63;;
16516;SDS011;8371;52.272;9.746;2024-02-21T01:59:29;5.80;;;5.40;;
16516;SDS011;8371;52.272;9.746;2024-02-21T02:01:55;6.73;;;6.07;;
16516;SDS011;8371;52.272;9.746;2024-02-21T02:04:22;6.30;;;5.70;;
16516;SDS011;8371;52.272;9.746;2024-02-21T02:06:48;8.67;;;5.93;;
16516;SDS011;8371;52.272;9.746;2024-02-21T02:09:14;6.43;;;6.03;;
16516;SDS011;8371;52.272;9.746;2024-02-21T02:11:40;6.83;;;5.90;;
16516;SDS011;8371;52.272;9.746;2024-02-21T02:14:08;6.20;;;5.80;;
16516;SDS011;8371;52.272;9.746;2024-02-21T02:16:34;6.47;;;5.87;;
16516;SDS011;8371;52.272;9.746;2024-02-21T02:18:59;6.80;;;6.20;;
16516;SDS011;8371;52.272;9.746;2024-02-21T02:21:27;5.60;;;5.23;;
16516;SDS011;8371;52.272;9.746;2024-02-21T02:23:55;6.57;;;5.77;;
16516;SDS011;8371;52.272;9.746;2024-02-21T02:26:21;7.03;;;6.23;;
16516;SDS011;8371;52.272;9.746;2024-02-21T02:28:46;7.77;;;7.00;;
16516;SDS011;8371;52.272;9.746;2024-02-21T02:31:12;6.50;;;5.90;;
16516;SDS011;8371;52.272;9.746;2024-02-21T02:33:38;6.53;;;6.13;;
16516;SDS011;8371;52.272;9.746;2024-02-21T02:36:03;6.20;;;5.80;;
16516;SDS011;8371;52.272;9.746;2024-02-21T02:38:29;6.33;;;5.87;;
16516;SDS011;8371;52.272;9.746;2024-02-21T02:40:55;7.53;;;5.83;;
16516;SDS011;8371;52.272;9.746;2024-02-21T02:43:21;6.17;;;5.57;;
16516;SDS011;8371;52.272;9.746;2024-02-21T02:45:46;6.70;;;6.07;;
16516;SDS011;8371;52.272;9.746;2024-02-21T02:48:12;7.23;;;6.57;;
16516;SDS011;8371;52.272;9.746;2024-02-21T02:50:38;9.17;;;6.17;;
16516;SDS011;8371;52.272;9.746;2024-02-21T02:53:03;6.67;;;6.30;;
16516;SDS011;8371;52.272;9.746;2024-02-21T02:55:29;7.10;;;6.40;;
16516;SDS011;8371;52.272;9.746;2024-02-21T02:57:55;8.80;;;6.43;;
16516;SDS011;8371;52.272;9.746;2024-02-21T03:00:21;7.27;;;6.67;;
16516;SDS011;8371;52.272;9.746;2024-02-21T03:02:48;8.10;;;6.43;;
16516;SDS011;8371;52.272;9.746;2024-02-21T03:05:15;7.10;;;6.40;;
16516;SDS011;8371;52.272;9.746;2024-02-21T03:07:42;6.70;;;6.20;;
16516;SDS011;8371;52.272;9.746;2024-02-21T03:10:09;6.73;;;6.23;;
16516;SDS011;8371;52.272;9.746;2024-02-21T03:12:35;6.73;;;6.27;;
16516;SDS011;8371;52.272;9.746;2024-02-21T03:15:01;6.93;;;6.33;;
16516;SDS011;8371;52.272;9.746;2024-02-21T03:17:27;7.43;;;6.83;;
16516;SDS011;8371;52.272;9.746;2024-02-21T03:19:53;7.47;;;6.50;;
16516;SDS011;8371;52.272;9.746;2024-02-21T03:22:21;6.67;;;6.10;;
16516;SDS011;8371;52.272;9.746;2024-02-21T03:24:47;6.90;;;6.50;;
16516;SDS011;8371;52.272;9.746;2024-02-21T03:27:12;6.73;;;6.27;;
16516;SDS011;8371;52.272;9.746;2024-02-21T03:29:38;6.67;;;6.20;;
16516;SDS011;8371;52.272;9.746;2024-02-21T03:32:04;6.53;;;6.13;;
16516;SDS011;8371;52.272;9.746;2024-02-21T03:34:29;7.23;;;6.60;;
16516;SDS011;8371;52.272;9.746;2024-02-21T03:36:55;7.77;;;7.07;;
16516;SDS011;8371;52.272;9.746;2024-02-21T03:39:21;6.93;;;6.37;;
16516;SDS011;8371;52.272;9.746;2024-02-21T03:41:47;6.97;;;6.40;;
16516;SDS011;8371;52.272;9.746;2024-02-21T03:44:13;7.43;;;6.77;;
16516;SDS011;8371;52.272;9.746;2024-02-21T03:46:38;7.23;;;6.63;;
16516;SDS011;8371;52.272;9.746;2024-02-21T03:49:04;7.80;;;7.20;;
16516;SDS011;8371;52.272;9.746;2024-02-21T03:51:30;7.17;;;6.67;;
16516;SDS011;8371;52.272;9.746;2024-02-21T03:53:55;10.60;;;6.73;;
16516;SDS011;8371;52.272;9.746;2024-02-21T03:56:21;8.13;;;7.03;;
16516;SDS011;8371;52.272;9.746;2024-02-21T03:58:47;11.13;;;7.30;;
16516;SDS011;8371;52.272;9.746;2024-02-21T04:01:14;8.73;;;7.93;;
16516;SDS011;8371;52.272;9.746;2024-02-21T04:03:40;8.67;;;7.80;;
16516;SDS011;8371;52.272;9.746;2024-02-21T04:06:07;8.23;;;7.60;;
16516;SDS011;8371;52.272;9.746;2024-02-21T04:08:33;8.70;;;7.93;;
16516;SDS011;8371;52.272;9.746;2024-02-21T04:10:59;8.67;;;7.80;;
16516;SDS011;8371;52.272;9.746;2024-02-21T04:13:24;9.13;;;8.33;;
16516;SDS011;8371;52.272;9.746;2024-02-21T04:15:51;8.77;;;8.17;;
16516;SDS011;8371;52.272;9.746;2024-02-21T04:18:17;8.17;;;7.57;;
16516;SDS011;8371;52.272;9.746;2024-02-21T04:20:42;9.47;;;8.10;;
16516;SDS011;8371;52.272;9.746;2024-02-21T04:23:08;7.57;;;6.93;;
16516;SDS011;8371;52.272;9.746;2024-02-21T04:25:34;7.30;;;6.77;;
16516;SDS011;8371;52.272;9.746;2024-02-21T04:28:00;8.03;;;7.27;;
16516;SDS011;8371;52.272;9.746;2024-02-21T04:30:26;8.07;;;7.37;;
16516;SDS011;8371;52.272;9.746;2024-02-21T04:32:51;7.53;;;7.07;;
16516;SDS011;8371;52.272;9.746;2024-02-21T04:35:17;9.13;;;7.53;;
16516;SDS011;8371;52.272;9.746;2024-02-21T04:37:43;8.00;;;7.30;;
16516;SDS011;8371;52.272;9.746;2024-02-21T04:40:08;8.50;;;7.70;;
16516;SDS011;8371;52.272;9.746;2024-02-21T04:42:34;7.50;;;7.00;;
16516;SDS011;8371;52.272;9.746;2024-02-21T04:45:00;7.20;;;6.70;;
16516;SDS011;8371;52.272;9.746;2024-02-21T04:47:27;7.23;;;6.53;;
16516;SDS011;8371;52.272;9.746;2024-02-21T04:49:53;7.90;;;7.30;;
16516;SDS011;8371;52.272;9.746;2024-02-21T04:52:19;8.33;;;6.87;;
16516;SDS011;8371;52.272;9.746;2024-02-21T04:54:45;7.93;;;7.33;;
16516;SDS011;8371;52.272;9.746;2024-02-21T04:57:10;7.67;;;7.03;;
16516;SDS011;8371;52.272;9.746;2024-02-21T04:59:36;7.93;;;7.17;;
16516;SDS011;8371;52.272;9.746;2024-02-21T05:02:02;8.30;;;7.70;;
16516;SDS011;8371;52.272;9.746;2024-02-21T05:04:28;7.63;;;7.03;;
16516;SDS011;8371;52.272;9.746;2024-02-21T05:06:54;8.00;;;7.43;;
16516;SDS011;8371;52.272;9.746;2024-02-21T05:09:20;10.63;;;8.57;;
16516;SDS011;8371;52.272;9.746;2024-02-21T05:11:46;8.67;;;7.90;;
16516;SDS011;8371;52.272;9.746;2024-02-21T05:14:13;9.07;;;8.20;;
16516;SDS011;8371;52.272;9.746;2024-02-21T05:16:39;8.53;;;7.73;;
16516;SDS011;8371;52.272;9.746;2024-02-21T05:19:05;8.83;;;7.40;;
16516;SDS011;8371;52.272;9.746;2024-02-21T05:21:31;10.47;;;7.40;;
16516;SDS011;8371;52.272;9.746;2024-02-21T05:23:56;6.40;;;6.00;;
16516;SDS011;8371;52.272;9.746;2024-02-21T05:28:51;7.53;;;6.97;;
16516;SDS011;8371;52.272;9.746;2024-02-21T05:31:19;8.10;;;7.20;;
16516;SDS011;8371;52.272;9.746;2024-02-21T05:33:46;10.23;;;8.40;;
16516;SDS011;8371;52.272;9.746;2024-02-21T05:36:12;7.80;;;7.30;;
16516;SDS011;8371;52.272;9.746;2024-02-21T05:38:38;7.30;;;6.70;;
16516;SDS011;8371;52.272;9.746;2024-02-21T05:41:04;7.57;;;6.97;;
16516;SDS011;8371;52.272;9.746;2024-02-21T05:43:30;8.93;;;6.63;;
16516;SDS011;8371;52.272;9.746;2024-02-21T05:45:55;8.90;;;7.00;;
16516;SDS011;8371;52.272;9.746;2024-02-21T05:48:21;7.60;;;6.87;;
16516;SDS011;8371;52.272;9.746;2024-02-21T05:50:48;8.67;;;7.37;;
16516;SDS011;8371;52.272;9.746;2024-02-21T05:53:14;7.23;;;6.73;;
16516;SDS011;8371;52.272;9.746;2024-02-21T05:55:40;6.63;;;6.30;;
16516;SDS011;8371;52.272;9.746;2024-02-21T05:58:06;8.20;;;7.30;;
16516;SDS011;8371;52.272;9.746;2024-02-21T06:00:32;7.80;;;7.10;;
16516;SDS011;8371;52.272;9.746;2024-02-21T06:02:58;7.33;;;6.73;;
16516;SDS011;8371;52.272;9.746;2024-02-21T06:05:24;7.47;;;6.97;;
16516;SDS011;8371;52.272;9.746;2024-02-21T06:07:50;7.33;;;6.83;;
16516;SDS011;8371;52.272;9.746;2024-02-21T06:10:16;7.60;;;7.10;;
16516;SDS011;8371;52.272;9.746;2024-02-21T06:12:42;8.37;;;7.20;;
16516;SDS011;8371;52.272;9.746;2024-02-21T06:15:08;7.70;;;7.20;;
16516;SDS011;8371;52.272;9.746;2024-02-21T06:17:34;7.10;;;6.70;;
16516;SDS011;8371;52.272;9.746;2024-02-21T06:19:59;7.10;;;6.60;;
16516;SDS011;8371;52.272;9.746;2024-02-21T06:22:25;8.13;;;7.57;;
16516;SDS011;8371;52.272;9.746;2024-02-21T06:24:51;7.90;;;7.40;;
16516;SDS011;8371;52.272;9.746;2024-02-21T06:27:16;6.97;;;6.57;;
16516;SDS011;8371;52.272;9.746;2024-02-21T06:29:42;7.10;;;6.40;;
16516;SDS011;8371;52.272;9.746;2024-02-21T06:32:08;9.00;;;7.07;;
16516;SDS011;8371;52.272;9.746;2024-02-21T06:34:34;7.40;;;6.80;;
16516;SDS011;8371;52.272;9.746;2024-02-21T06:37:00;7.57;;;7.07;;
16516;SDS011;8371;52.272;9.746;2024-02-21T06:39:25;7.43;;;6.87;;
16516;SDS011;8371;52.272;9.746;2024-02-21T06:41:51;6.60;;;6.10;;
16516;SDS011;8371;52.272;9.746;2024-02-21T06:44:18;6.40;;;6.10;;
16516;SDS011;8371;52.272;9.746;2024-02-21T06:46:43;6.80;;;6.33;;
16516;SDS011;8371;52.272;9.746;2024-02-21T06:49:09;5.90;;;5.60;;
16516;SDS011;8371;52.272;9.746;2024-02-21T06:51:37;6.67;;;6.23;;
16516;SDS011;8371;52.272;9.746;2024-02-21T06:54:02;6.87;;;6.43;;
16516;SDS011;8371;52.272;9.746;2024-02-21T06:56:28;6.80;;;6.23;;
16516;SDS011;8371;52.272;9.746;2024-02-21T06:58:58;6.60;;;6.30;;
16516;SDS011;8371;52.272;9.746;2024-02-21T07:01:21;6.90;;;6.50;;
16516;SDS011;8371;52.272;9.746;2024-02-21T07:03:47;7.60;;;6.80;;
16516;SDS011;8371;52.272;9.746;2024-02-21T07:06:13;6.20;;;5.90;;
16516;SDS011;8371;52.272;9.746;2024-02-21T07:08:38;6.50;;;5.93;;
16516;SDS011;8371;52.272;9.746;2024-02-21T07:11:04;7.10;;;6.47;;
16516;SDS011;8371;52.272;9.746;2024-02-21T07:13:31;7.43;;;6.73;;
16516;SDS011;8371;52.272;9.746;2024-02-21T07:15:57;7.87;;;7.37;;
16516;SDS011;8371;52.272;9.746;2024-02-21T07:18:23;6.90;;;6.23;;
16516;SDS011;8371;52.272;9.746;2024-02-21T07:20:51;8.63;;;6.57;;
16516;SDS011;8371;52.272;9.746;2024-02-21T07:23:18;6.57;;;5.90;;
16516;SDS011;8371;52.272;9.746;2024-02-21T07:25:44;6.53;;;6.10;;
16516;SDS011;8371;52.272;9.746;2024-02-21T07:28:09;6.57;;;6.07;;
16516;SDS011;8371;52.272;9.746;2024-02-21T07:30:35;6.93;;;6.43;;
16516;SDS011;8371;52.272;9.746;2024-02-21T07:33:01;6.27;;;5.70;;
16516;SDS011;8371;52.272;9.746;2024-02-21T07:35:27;6.30;;;5.83;;
16516;SDS011;8371;52.272;9.746;2024-02-21T07:37:53;5.63;;;5.23;;
16516;SDS011;8371;52.272;9.746;2024-02-21T07:40:18;6.50;;;5.87;;
16516;SDS011;8371;52.272;9.746;2024-02-21T07:42:44;6.00;;;5.63;;
16516;SDS011;8371;52.272;9.746;2024-02-21T07:45:10;6.23;;;5.90;;
16516;SDS011;8371;52.272;9.746;2024-02-21T07:47:36;6.47;;;6.17;;
16516;SDS011;8371;52.272;9.746;2024-02-21T07:50:02;5.87;;;5.33;;
16516;SDS011;8371;52.272;9.746;2024-02-21T07:52:29;5.63;;;5.23;;
16516;SDS011;8371;52.272;9.746;2024-02-21T07:54:54;5.70;;;5.30;;
16516;SDS011;8371;52.272;9.746;2024-02-21T07:57:20;6.83;;;6.23;;
16516;SDS011;8371;52.272;9.746;2024-02-21T07:59:47;8.77;;;5.90;;
16516;SDS011;8371;52.272;9.746;2024-02-21T08:02:16;6.80;;;6.20;;
16516;SDS011;8371;52.272;9.746;2024-02-21T08:04:42;6.13;;;5.73;;
16516;SDS011;8371;52.272;9.746;2024-02-21T08:07:08;6.60;;;5.97;;
16516;SDS011;8371;52.272;9.746;2024-02-21T08:09:35;6.00;;;5.63;;
16516;SDS011;8371;52.272;9.746;2024-02-21T08:12:03;6.10;;;5.60;;
16516;SDS011;8371;52.272;9.746;2024-02-21T08:14:30;6.80;;;6.30;;
16516;SDS011;8371;52.272;9.746;2024-02-21T08:16:55;6.07;;;5.60;;
16516;SDS011;8371;52.272;9.746;2024-02-21T08:19:21;5.83;;;5.30;;
16516;SDS011;8371;52.272;9.746;2024-02-21T08:21:50;5.93;;;5.43;;
16516;SDS011;8371;52.272;9.746;2024-02-21T08:24:16;5.70;;;5.40;;
16516;SDS011;8371;52.272;9.746;2024-02-21T08:26:42;6.90;;;5.30;;
16516;SDS011;8371;52.272;9.746;2024-02-21T08:29:10;5.57;;;5.30;;
16516;SDS011;8371;52.272;9.746;2024-02-21T08:31:36;6.30;;;5.80;;
16516;SDS011;8371;52.272;9.746;2024-02-21T08:34:01;5.03;;;4.77;;
16516;SDS011;8371;52.272;9.746;2024-02-21T08:36:31;5.20;;;4.90;;
16516;SDS011;8371;52.272;9.746;2024-02-21T08:38:57;5.87;;;5.67;;
16516;SDS011;8371;52.272;9.746;2024-02-21T08:41:23;5.23;;;4.73;;
16516;SDS011;8371;52.272;9.746;2024-02-21T08:43:50;5.37;;;4.97;;
16516;SDS011;8371;52.272;9.746;2024-02-21T08:46:17;5.30;;;4.90;;
16516;SDS011;8371;52.272;9.746;2024-02-21T08:48:43;5.07;;;4.73;;
16516;SDS011;8371;52.272;9.746;2024-02-21T08:51:08;4.50;;;4.23;;
16516;SDS011;8371;52.272;9.746;2024-02-21T08:53:34;4.90;;;4.60;;
16516;SDS011;8371;52.272;9.746;2024-02-21T08:56:00;7.50;;;4.67;;
16516;SDS011;8371;52.272;9.746;2024-02-21T08:58:25;4.43;;;4.13;;
16516;SDS011;8371;52.272;9.746;2024-02-21T09:00:52;3.87;;;3.57;;
16516;SDS011;8371;52.272;9.746;2024-02-21T09:03:17;3.83;;;3.63;;
16516;SDS011;8371;52.272;9.746;2024-02-21T09:05:45;5.00;;;4.70;;
16516;SDS011;8371;52.272;9.746;2024-02-21T09:08:12;4.77;;;4.37;;
16516;SDS011;8371;52.272;9.746;2024-02-21T09:10:39;3.90;;;3.70;;
16516;SDS011;8371;52.272;9.746;2024-02-21T09:13:05;3.77;;;3.47;;
16516;SDS011;8371;52.272;9.746;2024-02-21T09:15:32;3.90;;;3.63;;
16516;SDS011;8371;52.272;9.746;2024-02-21T09:17:58;3.70;;;3.50;;
16516;SDS011;8371;52.272;9.746;2024-02-21T09:20:24;4.10;;;3.80;;
16516;SDS011;8371;52.272;9.746;2024-02-21T09:22:50;4.03;;;3.83;;
16516;SDS011;8371;52.272;9.746;2024-02-21T09:25:15;7.33;;;4.00;;
16516;SDS011;8371;52.272;9.746;2024-02-21T09:27:41;4.27;;;3.80;;
16516;SDS011;8371;52.272;9.746;2024-02-21T09:30:09;4.17;;;3.87;;
16516;SDS011;8371;52.272;9.746;2024-02-21T09:32:34;3.90;;;3.70;;
16516;SDS011;8371;52.272;9.746;2024-02-21T09:35:01;3.60;;;3.50;;
16516;SDS011;8371;52.272;9.746;2024-02-21T09:37:27;4.00;;;3.60;;
16516;SDS011;8371;52.272;9.746;2024-02-21T09:39:53;4.00;;;3.70;;
16516;SDS011;8371;52.272;9.746;2024-02-21T09:42:19;3.60;;;3.40;;
16516;SDS011;8371;52.272;9.746;2024-02-21T09:44:47;3.97;;;3.07;;
16516;SDS011;8371;52.272;9.746;2024-02-21T09:47:17;4.30;;;3.40;;
16516;SDS011;8371;52.272;9.746;2024-02-21T09:49:46;2.93;;;2.83;;
16516;SDS011;8371;52.272;9.746;2024-02-21T09:52:13;4.13;;;3.83;;
16516;SDS011;8371;52.272;9.746;2024-02-21T09:54:41;3.43;;;2.80;;
16516;SDS011;8371;52.272;9.746;2024-02-21T09:57:09;3.20;;;3.00;;
16516;SDS011;8371;52.272;9.746;2024-02-21T09:59:34;3.37;;;3.17;;
16516;SDS011;8371;52.272;9.746;2024-02-21T10:02:00;3.13;;;2.90;;
16516;SDS011;8371;52.272;9.746;2024-02-21T10:04:27;2.60;;;2.50;;
16516;SDS011;8371;52.272;9.746;2024-02-21T10:06:53;3.80;;;3.30;;
16516;SDS011;8371;52.272;9.746;2024-02-21T10:09:23;3.73;;;2.57;;
16516;SDS011;8371;52.272;9.746;2024-02-21T10:11:50;3.10;;;2.90;;
16516;SDS011;8371;52.272;9.746;2024-02-21T10:14:16;3.13;;;2.93;;
16516;SDS011;8371;52.272;9.746;2024-02-21T10:16:44;2.97;;;2.80;;
16516;SDS011;8371;52.272;9.746;2024-02-21T10:19:19;3.67;;;3.37;;
16516;SDS011;8371;52.272;9.746;2024-02-21T10:22:05;2.43;;;2.33;;
16516;SDS011;8371;52.272;9.746;2024-02-21T10:24:33;2.27;;;2.17;;
16516;SDS011;8371;52.272;9.746;2024-02-21T10:27:03;2.67;;;2.50;;
16516;SDS011;8371;52.272;9.746;2024-02-21T10:29:30;3.23;;;2.60;;
16516;SDS011;8371;52.272;9.746;2024-02-21T10:32:03;2.63;;;2.50;;
16516;SDS011;8371;52.272;9.746;2024-02-21T10:37:22;2.53;;;2.23;;
16516;SDS011;8371;52.272;9.746;2024-02-21T10:39:48;2.43;;;1.97;;
16516;SDS011;8371;52.272;9.746;2024-02-21T10:42:14;2.10;;;2.00;;
16516;SDS011;8371;52.272;9.746;2024-02-21T10:44:43;2.07;;;1.87;;
16516;SDS011;8371;52.272;9.746;2024-02-21T10:47:11;1.57;;;1.53;;
16516;SDS011;8371;52.272;9.746;2024-02-21T10:49:42;2.00;;;1.90;;
16516;SDS011;8371;52.272;9.746;2024-02-21T10:52:13;3.33;;;2.00;;
16516;SDS011;8371;52.272;9.746;2024-02-21T10:57:32;3.63;;;1.97;;
16516;SDS011;8371;52.272;9.746;2024-02-21T10:59:58;2.20;;;1.30;;
16516;SDS011;8371;52.272;9.746;2024-02-21T11:02:24;1.57;;;1.43;;
16516;SDS011;8371;52.272;9.746;2024-02-21T11:04:51;1.87;;;1.77;;
16516;SDS011;8371;52.272;9.746;2024-02-21T11:07:20;2.07;;;1.80;;
16516;SDS011;8371;52.272;9.746;2024-02-21T11:09:52;1.87;;;1.77;;
16516;SDS011;8371;52.272;9.746;2024-02-21T11:12:20;1.63;;;1.50;;
16516;SDS011;8371;52.272;9.746;2024-02-21T11:14:47;1.93;;;1.33;;
16516;SDS011;8371;52.272;9.746;2024-02-21T11:17:19;2.20;;;1.67;;
16516;SDS011;8371;52.272;9.746;2024-02-21T11:19:50;1.37;;;1.27;;
16516;SDS011;8371;52.272;9.746;2024-02-21T11:22:16;1.57;;;1.33;;
16516;SDS011;8371;52.272;9.746;2024-02-21T11:24:43;1.90;;;1.40;;
16516;SDS011;8371;52.272;9.746;2024-02-21T11:27:11;1.47;;;1.37;;
16516;SDS011;8371;52.272;9.746;2024-02-21T11:29:56;1.27;;;1.17;;
16516;SDS011;8371;52.272;9.746;2024-02-21T11:32:24;1.00;;;1.00;;
16516;SDS011;8371;52.272;9.746;2024-02-21T11:34:54;1.50;;;1.50;;
16516;SDS011;8371;52.272;9.746;2024-02-21T11:37:24;1.80;;;1.70;;
16516;SDS011;8371;52.272;9.746;2024-02-21T11:39:53;1.70;;;1.60;;
16516;SDS011;8371;52.272;9.746;2024-02-21T11:42:19;1.57;;;1.47;;
16516;SDS011;8371;52.272;9.746;2024-02-21T11:44:45;1.20;;;1.20;;
16516;SDS011;8371;52.272;9.746;2024-02-21T11:47:11;1.57;;;1.47;;
16516;SDS011;8371;52.272;9.746;2024-02-21T11:49:38;1.80;;;1.70;;
16516;SDS011;8371;52.272;9.746;2024-02-21T11:52:07;1.67;;;1.67;;
16516;SDS011;8371;52.272;9.746;2024-02-21T11:54:33;1.47;;;1.47;;
16516;SDS011;8371;52.272;9.746;2024-02-21T11:56:59;2.27;;;1.70;;
16516;SDS011;8371;52.272;9.746;2024-02-21T11:59:26;1.60;;;1.50;;
16516;SDS011;8371;52.272;9.746;2024-02-21T12:01:52;1.87;;;1.77;;
16516;SDS011;8371;52.272;9.746;2024-02-21T12:04:19;1.60;;;1.60;;
16516;SDS011;8371;52.272;9.746;2024-02-21T12:06:45;1.90;;;1.80;;
16516;SDS011;8371;52.272;9.746;2024-02-21T12:09:17;2.40;;;2.30;;
16516;SDS011;8371;52.272;9.746;2024-02-21T12:11:44;2.53;;;2.43;;
16516;SDS011;8371;52.272;9.746;2024-02-21T12:14:10;2.93;;;2.43;;
16516;SDS011;8371;52.272;9.746;2024-02-21T12:16:36;2.40;;;2.30;;
16516;SDS011;8371;52.272;9.746;2024-02-21T12:19:02;3.67;;;2.37;;
16516;SDS011;8371;52.272;9.746;2024-02-21T12:21:36;2.73;;;2.63;;
16516;SDS011;8371;52.272;9.746;2024-02-21T12:24:12;2.87;;;2.77;;
16516;SDS011;8371;52.272;9.746;2024-02-21T12:26:40;3.00;;;2.80;;
16516;SDS011;8371;52.272;9.746;2024-02-21T12:29:07;3.30;;;3.10;;
16516;SDS011;8371;52.272;9.746;2024-02-21T12:31:36;2.80;;;2.57;;
16516;SDS011;8371;52.272;9.746;2024-02-21T12:34:03;3.30;;;3.10;;
16516;SDS011;8371;52.272;9.746;2024-02-21T12:36:30;3.23;;;3.03;;
16516;SDS011;8371;52.272;9.746;2024-02-21T12:38:57;3.73;;;3.53;;
16516;SDS011;8371;52.272;9.746;2024-02-21T12:41:23;3.50;;;3.30;;
16516;SDS011;8371;52.272;9.746;2024-02-21T12:43:51;3.70;;;3.50;;
16516;SDS011;8371;52.272;9.746;2024-02-21T12:46:16;4.43;;;4.23;;
16516;SDS011;8371;52.272;9.746;2024-02-21T12:48:42;4.03;;;3.83;;
16516;SDS011;8371;52.272;9.746;2024-02-21T12:51:08;4.30;;;4.10;;
16516;SDS011;8371;52.272;9.746;2024-02-21T12:53:33;3.67;;;3.57;;
16516;SDS011;8371;52.272;9.746;2024-02-21T12:55:59;3.80;;;3.60;;
16516;SDS011;8371;52.272;9.746;2024-02-21T12:58:25;4.80;;;4.50;;
16516;SDS011;8371;52.272;9.746;2024-02-21T13:00:51;3.80;;;3.70;;
16516;SDS011;8371;52.272;9.746;2024-02-21T13:03:17;4.83;;;4.53;;
16516;SDS011;8371;52.272;9.746;2024-02-21T13:05:42;4.63;;;3.80;;
16516;SDS011;8371;52.272;9.746;2024-02-21T13:08:08;3.23;;;3.13;;
16516;SDS011;8371;52.272;9.746;2024-02-21T13:10:34;3.33;;;3.23;;
16516;SDS011;8371;52.272;9.746;2024-02-21T13:13:01;3.53;;;3.23;;
16516;SDS011;8371;52.272;9.746;2024-02-21T13:15:27;3.33;;;3.13;;
16516;SDS011;8371;52.272;9.746;2024-02-21T13:17:56;3.07;;;2.90;;
16516;SDS011;8371;52.272;9.746;2024-02-21T13:20:27;2.70;;;2.50;;
16516;SDS011;8371;52.272;9.746;2024-02-21T13:22:54;3.03;;;2.93;;
16516;SDS011;8371;52.272;9.746;2024-02-21T13:25:20;2.60;;;2.50;;
16516;SDS011;8371;52.272;9.746;2024-02-21T13:27:46;2.17;;;2.00;;
16516;SDS011;8371;52.272;9.746;2024-02-21T13:30:13;2.30;;;2.20;;
16516;SDS011;8371;52.272;9.746;2024-02-21T13:32:41;2.00;;;1.90;;
16516;SDS011;8371;52.272;9.746;2024-02-21T13:35:08;1.90;;;1.80;;
16516;SDS011;8371;52.272;9.746;2024-02-21T13:37:36;1.60;;;1.50;;
16516;SDS011;8371;52.272;9.746;2024-02-21T13:40:02;3.27;;;1.90;;
16516;SDS011;8371;52.272;9.746;2024-02-21T13:42:29;1.83;;;1.57;;
16516;SDS011;8371;52.272;9.746;2024-02-21T13:44:55;1.67;;;1.20;;
16516;SDS011;8371;52.272;9.746;2024-02-21T13:47:21;1.90;;;1.80;;
16516;SDS011;8371;52.272;9.746;2024-02-21T13:49:46;1.43;;;1.33;;
16516;SDS011;8371;52.272;9.746;2024-02-21T13:52:13;1.83;;;1.40;;
16516;SDS011;8371;52.272;9.746;2024-02-21T13:54:39;1.20;;;1.20;;
16516;SDS011;8371;52.272;9.746;2024-02-21T13:57:07;2.00;;;1.90;;
16516;SDS011;8371;52.272;9.746;2024-02-21T13:59:32;1.60;;;1.50;;
16516;SDS011;8371;52.272;9.746;2024-02-21T14:01:59;1.53;;;1.43;;
16516;SDS011;8371;52.272;9.746;2024-02-21T14:04:25;3.57;;;1.93;;
16516;SDS011;8371;52.272;9.746;2024-02-21T14:06:50;1.60;;;1.50;;
16516;SDS011;8371;52.272;9.746;2024-02-21T14:09:18;1.47;;;1.37;;
16516;SDS011;8371;52.272;9.746;2024-02-21T14:11:44;1.23;;;1.13;;
16516;SDS011;8371;52.272;9.746;2024-02-21T14:14:11;1.17;;;1.17;;
16516;SDS011;8371;52.272;9.746;2024-02-21T14:16:36;1.17;;;1.17;;
16516;SDS011;8371;52.272;9.746;2024-02-21T14:19:02;1.83;;;1.27;;
16516;SDS011;8371;52.272;9.746;2024-02-21T14:21:28;1.60;;;1.07;;
16516;SDS011;8371;52.272;9.746;2024-02-21T14:23:54;1.20;;;1.10;;
16516;SDS011;8371;52.272;9.746;2024-02-21T14:26:22;2.83;;;1.20;;
16516;SDS011;8371;52.272;9.746;2024-02-21T14:28:47;1.50;;;1.40;;
16516;SDS011;8371;52.272;9.746;2024-02-21T14:31:13;1.33;;;1.33;;
16516;SDS011;8371;52.272;9.746;2024-02-21T14:33:39;2.93;;;1.83;;
16516;SDS011;8371;52.272;9.746;2024-02-21T14:36:05;1.30;;;1.20;;
16516;SDS011;8371;52.272;9.746;2024-02-21T14:38:31;1.80;;;1.70;;
16516;SDS011;8371;52.272;9.746;2024-02-21T14:40:56;2.03;;;1.73;;
16516;SDS011;8371;52.272;9.746;2024-02-21T14:43:22;1.60;;;1.50;;
16516;SDS011;8371;52.272;9.746;2024-02-21T14:45:48;1.63;;;1.53;;
16516;SDS011;8371;52.272;9.746;2024-02-21T14:48:14;1.50;;;1.20;;
16516;SDS011;8371;52.272;9.746;2024-02-21T14:50:40;1.60;;;1.50;;
16516;SDS011;8371;52.272;9.746;2024-02-21T14:53:06;2.10;;;1.40;;
16516;SDS011;8371;52.272;9.746;2024-02-21T14:55:33;1.60;;;1.50;;
16516;SDS011;8371;52.272;9.746;2024-02-21T14:57:59;1.40;;;1.30;;
16516;SDS011;8371;52.272;9.746;2024-02-21T15:00:26;1.00;;;1.00;;
16516;SDS011;8371;52.272;9.746;2024-02-21T15:03:00;1.47;;;1.37;;